Thursday, September 29, 2016, 7:47 AM EDT

KFYJ, West Point, Middle Peninsula Regional Airport

Location: Shacklefords, VA, United States Lat: 37.521
Local Time: 7:47 AM EDT (11:47 GMT) Lon: -76.764
Time Zone: US/Eastern Elev: 22 ft

Show me the last for .
Show Decoded

2016-09-29 07:35 METAR KFYJ 291135Z AUTO 00000KT 10SM SCT006 20/20 A3006 RMK AO2 T02030200 =
2016-09-29 07:15 METAR KFYJ 291115Z AUTO 36003KT 10SM BKN006 21/20 A3006 RMK AO2 T02050200 =
2016-09-29 06:55 METAR KFYJ 291055Z AUTO 00000KT 10SM SCT004 SCT080 21/20 A3005 RMK AO2 T02050201
                 =
2016-09-29 06:35 METAR KFYJ 291035Z AUTO 08004KT 10SM SCT090 20/20 A3005 RMK AO2 T02020198 =
2016-09-29 06:15 METAR KFYJ 291015Z AUTO 08005KT 10SM SCT080 20/20 A3004 RMK AO2 T02040200 =
2016-09-29 05:55 METAR KFYJ 290955Z AUTO 07006KT 10SM SCT018 SCT027 BKN080 21/20 A3004 RMK AO2
                 T02050200 =
2016-09-29 05:35 METAR KFYJ 290935Z AUTO 08005KT 10SM BKN021 BKN044 OVC110 21/20 A3004 RMK AO2
                 T02050200 =
2016-09-29 05:15 METAR KFYJ 290915Z AUTO 08005KT 10SM SCT004 BKN019 OVC120 20/20 A3004 RMK AO2
                 T02030200 =
2016-09-29 04:55 METAR KFYJ 290855Z AUTO 08007KT 10SM SCT018 SCT042 BKN070 20/20 A3003 RMK AO2
                 P0001 60001 T02010197 =
2016-09-29 04:35 METAR KFYJ 290835Z AUTO 09006KT 10SM SCT018 SCT024 20/19 A3003 RMK AO2 T01960192
                 =
2016-09-29 04:15 METAR KFYJ 290815Z AUTO 08006KT 10SM CLR 20/19 A3003 RMK AO2 T01950190 =
2016-09-29 03:55 METAR KFYJ 290755Z AUTO 09005KT 10SM CLR 20/19 A3003 RMK AO2 T01950190 =
2016-09-29 03:35 METAR KFYJ 290735Z AUTO 08005KT 10SM CLR 19/19 A3003 RMK AO2 T01930190 =
2016-09-29 03:15 METAR KFYJ 290715Z AUTO 08005KT 10SM CLR 19/19 A3003 RMK AO2 T01920188 =
2016-09-29 02:55 METAR KFYJ 290655Z AUTO 08006KT 10SM SCT021 19/19 A3003 RMK AO2 T01900186 =
2016-09-29 02:35 METAR KFYJ 290635Z AUTO 09004KT 10SM SCT021 SCT050 19/19 A3004 RMK AO2 T01900186
                 =
2016-09-29 02:15 METAR KFYJ 290615Z AUTO 07004KT 10SM SCT021 SCT028 BKN050 19/18 A3004 RMK AO2
                 T01880184 =
2016-09-29 01:55 METAR KFYJ 290555Z AUTO 00000KT 10SM SCT065 SCT080 19/18 A3004 RMK AO2 60212
                 T01860181 10202 20183 402550182 =
2016-09-29 01:35 METAR KFYJ 290535Z AUTO 09004KT 10SM SCT050 SCT065 BKN080 19/18 A3004 RMK AO2
                 T01880183 =
2016-09-29 01:15 METAR KFYJ 290515Z AUTO 00000KT 10SM SCT041 SCT050 BKN060 19/19 A3005 RMK AO2
                 T01900185 =
2016-09-29 00:55 METAR KFYJ 290455Z AUTO 07005KT 10SM SCT060 SCT080 BKN110 19/19 A3005 RMK AO2
                 T01900185 =
2016-09-29 00:35 METAR KFYJ 290435Z AUTO 06006KT 10SM SCT007 BKN031 OVC110 19/18 A3004 RMK AO2
                 T01880183 =
2016-09-29 00:15 METAR KFYJ 290415Z AUTO 03003KT 10SM BKN007 BKN024 OVC030 19/19 A3006 RMK AO2
                 T01900185 =
2016-09-28 23:55 METAR KFYJ 290355Z AUTO 27007KT 4SM SCT005 BKN024 OVC040 19/18 A3006 RMK AO2
                 P0021 T01870182 =
2016-09-28 23:35 METAR KFYJ 290335Z AUTO 07010KT 3SM SCT034 BKN041 OVC048 19/18 A3004 RMK AO2
                 P0012 T01870183 =
2016-09-28 23:15 METAR KFYJ 290315Z AUTO 07009KT 7SM BKN022 BKN045 OVC055 19/18 A3004 RMK AO2
                 P0004 T01850180 =
2016-09-28 22:55 METAR KFYJ 290255Z AUTO 05005KT 1 3/4SM BKN019 OVC026 18/18 A3005 RMK AO2 P0037
                 60189 T01830178 =
2016-09-28 22:40 METAR KFYJ 290240Z AUTO 06006KT 4SM SCT019 BKN027 OVC055 19/18 A3004 RMK AO2
                 P0023 T01850180 =
2016-09-28 22:15 METAR KFYJ 290215Z AUTO 07008KT 1 3/4SM SCT009 BKN017 OVC030 19/18 A3003 RMK AO2
                 P0012 T01850180 =
2016-09-28 21:55 METAR KFYJ 290155Z AUTO 06009KT 1/2SM BKN007 OVC012 19/18 A3003 RMK AO2 P0125
                 T01850178 =
2016-09-28 21:35 METAR KFYJ 290135Z AUTO 35006KT 1/2SM BKN007 OVC014 19/18 A3005 RMK AO2 P0070
                 T01920184 =
2016-09-28 21:15 METAR KFYJ 290115Z AUTO 33005KT 1 3/4SM SCT008 BKN018 OVC023 20/19 A3004 RMK AO2
                 P0020 T01990188 =
2016-09-28 20:55 METAR KFYJ 290055Z AUTO 32007KT 1SM BKN006 BKN011 OVC025 20/19 A3003 RMK AO2 VIS
                 1/2V5 P0023 T01990190 =
2016-09-28 20:35 METAR KFYJ 290035Z AUTO 06007KT 10SM BKN028 OVC037 20/19 A3001 RMK AO2 T02000190
                 =
2016-09-28 20:15 METAR KFYJ 290015Z AUTO 04007KT 10SM SCT025 BKN031 OVC047 20/19 A2999 RMK AO2
                 T02010190 =
2016-09-28 19:55 METAR KFYJ 282355Z AUTO 08005KT 10SM SCT018 BKN025 OVC037 20/19 A3002 RMK AO2
                 P0066 60074 T02020190 10255 20201 =
2016-09-28 19:35 METAR KFYJ 282335Z AUTO 36010KT 1SM BKN007 OVC011 21/20 A3001 RMK AO2 VIS 1/4V3
                 P0066 T02060196 =
2016-09-28 19:15 METAR KFYJ 282315Z AUTO 28008KT 10SM BKN009 OVC013 21/20 A2999 RMK AO2 T02110200
                 =
2016-09-28 18:55 METAR KFYJ 282255Z AUTO 06006KT 10SM SCT008 BKN013 OVC043 22/21 A2997 RMK AO2
                 P0002 T02220211 =
2016-09-28 18:35 METAR KFYJ 282235Z AUTO 00000KT 10SM SCT015 BKN041 OVC060 23/21 A2998 RMK AO2
                 P0002 T02250211 =
2016-09-28 18:15 METAR KFYJ 282215Z AUTO 12009G17KT 7SM SCT018 BKN065 OVC085 22/21 A2995 RMK AO2
                 P0002 T02240206 =
2016-09-28 17:55 METAR KFYJ 282155Z AUTO 11010G17KT 10SM SCT047 SCT065 BKN110 23/20 A2993 RMK AO2
                 T02320198 =
2016-09-28 17:35 METAR KFYJ 282135Z AUTO 12012G18KT 10SM SCT110 24/20 A2995 RMK AO2 T02350198 =
2016-09-28 17:15 METAR KFYJ 282115Z AUTO 10012G19KT 10SM CLR 24/20 A2994 RMK AO2 T02400200 =
2016-09-28 16:55 METAR KFYJ 282055Z AUTO 11013KT 10SM SCT042 SCT050 SCT110 24/20 A2994 RMK AO2
                 P0006 60006 T02410204 =
2016-09-28 16:35 METAR KFYJ 282035Z AUTO 11010G15KT 10SM SCT024 SCT040 BKN050 24/22 A2995 RMK AO2
                 P0006 T02350215 =
2016-09-28 16:15 METAR KFYJ 282015Z AUTO 10009KT 2SM SCT022 BKN039 OVC050 23/21 A2995 RMK AO2 VIS
                 3/4V5 P0006 T02280208 =
2016-09-28 15:55 METAR KFYJ 281955Z AUTO 11011G18KT 10SM SCT019 SCT037 OVC050 24/20 A2995 RMK AO2
                 T02410200 =
2016-09-28 15:40 METAR KFYJ 281940Z AUTO 11012KT 10SM BKN019 BKN048 OVC065 25/21 A2995 RMK AO2
                 T02500205 =
2016-09-28 15:15 METAR KFYJ 281915Z AUTO 10007KT 10SM SCT017 SCT025 BKN038 25/21 A2996 RMK AO2
                 T02510214 =
2016-09-28 14:55 METAR KFYJ 281855Z AUTO 11008KT 10SM SCT029 BKN050 BKN055 25/21 A2996 RMK AO2
                 T02470211 =
2016-09-28 14:35 METAR KFYJ 281835Z AUTO 09007KT 10SM BKN031 OVC035 24/22 A2997 RMK AO2 T02440220
                 =
2016-09-28 14:15 METAR KFYJ 281815Z AUTO 11005KT 10SM BKN033 OVC045 24/22 A2997 RMK AO2 T02400216
                 =
2016-09-28 13:55 METAR KFYJ 281755Z AUTO 13006KT 10SM SCT029 BKN036 OVC044 25/21 A2997 RMK AO2
                 T02450206 10254 20201 =
2016-09-28 13:35 METAR KFYJ 281735Z AUTO 12005KT 10SM SCT021 SCT029 OVC038 25/21 A2998 RMK AO2
                 T02480205 =
2016-09-28 13:15 METAR KFYJ 281715Z AUTO 12007KT 10SM SCT029 BKN039 OVC049 25/21 A2998 RMK AO2
                 T02510208 =
2016-09-28 12:55 METAR KFYJ 281655Z AUTO 14007KT 10SM SCT029 BKN039 OVC050 25/21 A2998 RMK AO2
                 T02480206 =
2016-09-28 12:35 METAR KFYJ 281635Z AUTO 16009KT 10SM SCT029 BKN037 OVC044 25/21 A2998 RMK AO2
                 T02540210 =
2016-09-28 12:15 METAR KFYJ 281615Z AUTO 14010KT 10SM SCT037 BKN055 25/21 A2999 RMK AO2 T02500207
                 =
2016-09-28 11:55 METAR KFYJ 281555Z AUTO 14008KT 10SM SCT026 SCT034 BKN065 25/21 A2999 RMK AO2
                 T02490210 =
2016-09-28 11:35 METAR KFYJ 281535Z AUTO 14007KT 10SM SCT013 BKN050 OVC065 24/21 A2999 RMK AO2
                 T02360211 =
2016-09-28 11:15 METAR KFYJ 281515Z AUTO 15007KT 2 1/2SM BKN015 BKN019 OVC050 23/22 A2999 RMK AO2
                 VIS 2V5 T02300222 =
2016-09-28 10:55 METAR KFYJ 281455Z AUTO 16006KT 2SM SCT009 OVC017 23/22 A2999 RMK AO2 T02250221
                 =
2016-09-28 10:35 METAR KFYJ 281435Z AUTO 13004KT 2 1/2SM SCT009 BKN015 OVC030 22/22 A2999 RMK AO2
                 VIS 1 3/4V5 T02240221 =
2016-09-28 10:15 METAR KFYJ 281415Z AUTO 13004KT 5SM SCT015 BKN022 OVC029 22/22 A2999 RMK AO2
                 T02170215 =
2016-09-28 09:55 METAR KFYJ 281355Z AUTO 12003KT 4SM BKN015 BKN020 OVC027 21/21 A2998 RMK AO2
                 T02120210 =
2016-09-28 09:35 METAR KFYJ 281335Z AUTO 13004KT 2SM BKN015 BKN029 OVC034 21/21 A2998 RMK AO2
                 T02100210 =
2016-09-28 09:15 METAR KFYJ 281315Z AUTO 12004KT 7SM SCT027 BKN034 OVC042 21/21 A2996 RMK AO2
                 T02100210 =
2016-09-28 08:55 METAR KFYJ 281255Z AUTO 12004KT 7SM SCT007 BKN034 OVC041 21/21 A2996 RMK AO2
                 T02070206 =
2016-09-28 08:35 METAR KFYJ 281235Z AUTO 00000KT 4SM BKN034 BKN090 BKN110 21/20 A2996 RMK AO2
                 T02050204 =
2016-09-28 08:15 METAR KFYJ 281215Z AUTO 09007KT 7SM SCT036 SCT090 BKN110 20/20 A2994 RMK AO2
                 T02020201 =
2016-09-28 07:55 METAR KFYJ 281155Z AUTO 10005KT 2SM SCT032 SCT038 OVC110 20/20 A2995 RMK AO2
                 70017 T02010200 10201 20182 =

Support USWX by starting your Amazon purchase here.